Naples, FL

10:43 PM EDT on April 21, 2015 (GMT -0400)
KFLNAPLE31 | | Change Station
CLOSE
Current Station
Personal Weather Station
Location: Naples, FL
Elevation: 20 ft
Nearby Weather Stations

Elev 20 ft 26.16 °N, 81.78 °W | Updated 2 minutes ago

Light Rain
Light Rain
75.0 °F
Feels Like 75 °F
N
0.0
Wind Variable Wind from NW
Gusts 7.0 mph

Today
High -- | Low -- °F
--% Chance of Precip.
Yesterday
High -- | Low -- °F
Precip. -- in
6:58 AM 7:53 PM
Waxing Crescent, 14% visible
Pressure 29.99 in
Visibility 9.0 miles
Clouds Mostly Cloudy 9000 ft
Mostly Cloudy 11000 ft
Heat Index 75 °F
Dew Point 71 °F
Humidity 87%
Rainfall 0.30 in
Snow Depth Not available.
UV 0 out of 12
Pollen 2.30 out of 12
Air Quality Not available.
Flu Activity Local Activity
METAR KAPF 220153Z 30007KT 9SM -RA BKN090 BKN110 26/23 A2999 RMK AO2 RAB09E20B49 SLP155 P0000 T02560233

More Conditions Fewer Conditions

Pressure 29.99 in
Visibility 9.0 miles
Clouds Mostly Cloudy 9000 ft
Mostly Cloudy 11000 ft
Heat Index 75 °F
Dew Point 71 °F
Humidity 87%
Rainfall 0.30 in
Snow Depth Not available.
UV 0 out of 12
Pollen 2.30 out of 12
Air Quality Not available.
Flu Activity Local Activity
METAR KAPF 220153Z 30007KT 9SM -RA BKN090 BKN110 26/23 A2999 RMK AO2 RAB09E20B49 SLP155 P0000 T02560233

More Conditions Fewer Conditions

Nowcast | as of 9:57 PM EDT on April 21, 2015

Light showers will continue to move eastward across the local Gulf waters and into the Naples Metro area. Additional heavier showers and isolated thunderstorms are across Glades County. These showers will move to the northeast around 15 mph and produce rainfall accumulations to near 0ne inch with the heaviest showers. Isolated thunderstorms are possible with the heaviest showers.

×

10-Day Weather Forecast

Almanac

Astronomy

Apr. 21, 2015 Rise Set
Actual Time
Civil Twilight
Nautical Twilight
Astronomical Twilight
Moon
Length of Visible Light
Length of Day
Tomorrow will be .
, % of the Moon is Illuminated

Today's Extremes

State Highs State Lows

Community

WunderPhotos

Upload Photos

1,815,642 photos uploaded!

WunderBlogs® & News

Nearby

Air Quality

  Air Quality AQ Index Pollutant
Not available.

Snow Depth

Station Depth Elevation

Earthquake Activity

City Distance Mag. Time & Date
Minimum magnitude displayed is 2.5.

Coastal Water Temperatures

Place Temperature

Stations

Nearby Weather Stations

Station Location Temp. Windchill Dew Point Humidity Wind Precip. Elev Updated Type